Hlavní strana
METAR-TAF:

METAR-TAF

Letiště :

Bejrút, Libanon

zeměpisná šířka: 33-49N, zeměpisná délka: 035-29E, výška: 29 m

Aktuální stav počasí

Zpráva byla vytvořena před 1 hodinou a 6 minutami, v 04:00 UTC
Východní vítr 5 kt
Teplota 13°C
Vlhkost vzduchu 51%
Tlak 1022 hPa
Viditelnost 10 km a více
Žádná oblačnost pod 1500 m, nevyskytují se cumulonimby.

METAR: OLBA 160400Z 10005KT CAVOK 13/03 Q1022 NOSIG

Čas: 07:06 (05:06 UTC)

Předpověď počasí

Zpráva byla vytvořena před 7 hodinami a 6 minutami, v 22:00 UTC
Předpověď platná od 16 v 00 UTC do 17 v 06 UTC
Východojihovýchodní vítr 4 kt
Viditelnost 10 km a více
Žádná oblačnost pod 1500 m, nevyskytují se cumulonimby.
Změna
od 16 v 06 UTC do 16 v 09 UTC
Severní vítr 12 kt
Změna
od 16 v 16 UTC do 16 v 18 UTC
Jihovýchodní vítr 5 kt

TAF: OLBA 152200Z 1600/1706 12004KT CAVOK BECMG 1606/1609 01012KT BECMG 1616/1618 13005KT

Stav a předpovědi počasí z více než 4 000 letišť (zprávy METAR a TAF).

Červené a žluté tečky na mapě představují dostupné meteorologické stanice.

Když kurzor umístíte na tečku, zobrazí se název stanice.

Pak kliknutím zobrazíte stav a předpověď počasí.

Chcete-li změnit mapu, kliknutím na zelené tlačítko se znaménkem +mapu přiblížíte, kliknutím na zelené tlačítko se znaménkem – mapu oddálíte a kliknutím na zelené šipky přejdete na sousední mapy.


METAR-TAF: